ADDS METAR Data INFO
IDs: Format: Raw Decoded Include TAF

Data at: 0950 UTC 25 Jun 2018

KONL 250935Z AUTO 01003KT 10SM SCT009 OVC016 19/18 A2995 RMK AO2 T01860177
KONL 250915Z AUTO 05003KT 10SM BKN009 OVC016 19/18 A2995 RMK AO2 LTG DSNT SE T01860175
KONL 250855Z AUTO 00000KT 10SM VCTS OVC011 19/17 A2996 RMK AO2 LTG DSNT SE T01860174
KONL 250835Z AUTO 04003KT 10SM OVC013 19/17 A2996 RMK AO2 T01850174
KONL 250815Z AUTO 04005KT 10SM BKN015 OVC024 18/18 A2995 RMK AO2 T01830175
KONL 250755Z AUTO 02003KT 10SM BKN022 BKN120 18/17 A2995 RMK AO2 T01800171
KONL 250735Z AUTO 00000KT 10SM BKN018 OVC120 18/17 A2995 RMK AO2 LTG DSNT SE T01820171
KONL 250715Z AUTO 01003KT 10SM BKN014 OVC120 18/17 A2994 RMK AO2 T01830171
KONL 250655Z AUTO 01004KT 10SM SCT014 OVC120 18/17 A2993 RMK AO2 T01820170
KONL 250635Z AUTO 01003KT 10SM OVC120 19/17 A2995 RMK AO2 T01850170
KONL 250615Z AUTO 02003KT 10SM SCT026 OVC120 19/17 A2995 RMK AO2 T01850171
KONL 250555Z AUTO 02004KT 10SM SCT026 OVC120 19/18 A2996 RMK AO2 LTG DSNT S T01860177 10216 20185 402700182
KONL 250535Z AUTO 00000KT 10SM OVC120 19/18 A2998 RMK AO2 T01850177
KONL 250515Z AUTO 00000KT 10SM SCT090 OVC120 19/18 A2998 RMK AO2 LTG DSNT E T01880177
KONL 250455Z AUTO 00000KT 10SM SCT070 OVC100 19/18 A2999 RMK AO2 LTG DSNT S T01880176
KONL 250435Z AUTO 00000KT 10SM SCT070 OVC100 19/18 A2999 RMK AO2 T01880176
KONL 250415Z AUTO 31003KT 10SM OVC100 19/18 A2999 RMK AO2 T01910175
KONL 250355Z AUTO 05004KT 10SM OVC100 19/18 A2998 RMK AO2 LTG DSNT E T01930175
KONL 250335Z AUTO 35005KT 10SM OVC100 20/18 A2999 RMK AO2 T01950176
KONL 250315Z AUTO 04007KT 10SM OVC100 19/18 A2997 RMK AO2 T01930178
KONL 250255Z AUTO 32003KT 10SM BKN100 BKN120 19/18 A2996 RMK AO2 T01920175
KONL 250235Z AUTO 28004KT 10SM SCT120 19/18 A2995 RMK AO2 LTG DSNT E T01880175
KONL 250215Z AUTO 00000KT 10SM CLR 19/18 A2993 RMK AO2 T01940175
KONL 250155Z AUTO 26003KT 10SM CLR 19/18 A2993 RMK AO2 LTG DSNT S T01940176
KONL 250135Z AUTO 25004KT 10SM CLR 20/17 A2993 RMK AO2 LTG DSNT S T01960172
KONL 250115Z AUTO 00000KT 10SM CLR 20/17 A2992 RMK AO2 LTG DSNT S AND SW T01970172
KONL 250055Z AUTO 32006KT 10SM SCT090 20/17 A2991 RMK AO2 LTG DSNT E THRU SW T01990170
KONL 250035Z AUTO 35006KT 10SM VCTS SCT080 20/17 A2993 RMK AO2 LTG DSNT SW T02030168
KONL 250015Z AUTO 36008KT 10SM SCT028 SCT038 SCT050 21/17 A2993 RMK AO2 LTG DSNT N AND W T02070167
KONL 242355Z AUTO 35008KT 10SM -RA SCT032 BKN050 BKN070 22/17 A2993 RMK AO2 LTG DSNT SW AND W T02180171 10270 20218
KONL 242335Z AUTO 01010KT 10SM SCT031 SCT038 BKN055 22/16 A2991 RMK AO2 LTG DSNT SW T02220164
KONL 242315Z AUTO 33013G21KT 10SM SCT039 BKN110 26/18 A2993 RMK AO2 LTG DSNT NW T02600177
KONL 242255Z AUTO 36003KT 10SM SCT110 27/18 A2990 RMK AO2 LTG DSNT NW T02670178
KONL 242235Z AUTO 04006KT 10SM CLR 27/18 A2988 RMK AO2 LTG DSNT N T02670179
KONL 242215Z AUTO 04003KT 10SM CLR 27/18 A2990 RMK AO2 LTG DSNT NW T02650182
KONL 242155Z AUTO 09004KT 10SM CLR 26/18 A2988 RMK AO2 LTG DSNT NW T02580180
KONL 242135Z AUTO 09006KT 10SM CLR 27/18 A2988 RMK AO2 T02650182
KONL 242115Z AUTO 05004KT 10SM CLR 26/18 A2988 RMK AO2 LTG DSNT NW T02570177
KONL 242055Z AUTO 09004KT 10SM CLR 26/18 A2989 RMK AO2 T02580177
KONL 242035Z AUTO 07005KT 10SM SCT120 26/18 A2989 RMK AO2 LTG DSNT SW T02570183
KONL 242015Z AUTO 11003KT 10SM SCT120 26/18 A2990 RMK AO2 T02600179
KONL 241955Z AUTO 08003KT 10SM SCT110 26/18 A2990 RMK AO2 T02570181
KONL 241935Z AUTO 04003KT 10SM BKN120 25/18 A2991 RMK AO2 T02510176
KONL 241915Z AUTO 00000KT 10SM OVC120 25/18 A2991 RMK AO2 T02510182
KONL 241855Z AUTO 00000KT 10SM BKN120 26/18 A2991 RMK AO2 LTG DSNT W T02550180
KONL 241835Z AUTO 36003KT 10SM SCT120 26/18 A2991 RMK AO2 T02550175
KONL 241815Z AUTO 03003KT 10SM CLR 25/17 A2990 RMK AO2 T02530171
KONL 241755Z AUTO 00000KT 10SM CLR 25/17 A2990 RMK AO2 T02500174 10252 20188
KONL 241735Z AUTO 00000KT 10SM CLR 25/18 A2990 RMK AO2 LTG DSNT NW T02520175
KONL 241715Z AUTO 00000KT 10SM CLR 25/18 A2990 RMK AO2 T02460176
KONL 241655Z AUTO 00000KT 10SM SCT120 24/17 A2990 RMK AO2 T02430173
KONL 241635Z AUTO 00000KT 10SM SCT120 24/18 A2990 RMK AO2 T02410178
KONL 241615Z AUTO 00000KT 10SM CLR 23/17 A2989 RMK AO2 T02330174
KONL 241555Z AUTO 00000KT 10SM CLR 23/17 A2990 RMK AO2 T02290174
KONL 241535Z AUTO 00000KT 10SM SCT046 23/17 A2990 RMK AO2 T02270174
KONL 241515Z AUTO 08003KT 10SM SCT046 23/17 A2990 RMK AO2 T02290168
KONL 241455Z AUTO 00000KT 10SM CLR 23/17 A2988 RMK AO2 T02270168
KONL 241435Z AUTO 00000KT 10SM CLR 22/17 A2988 RMK AO2 T02230169
KONL 241415Z AUTO 00000KT 10SM CLR 22/17 A2987 RMK AO2 T02180165
KONL 241355Z AUTO 00000KT 10SM CLR 22/17 A2986 RMK AO2 T02150167
KONL 241335Z AUTO 00000KT 10SM CLR 22/17 A2986 RMK AO2 T02150167
KONL 241315Z AUTO 00000KT 10SM CLR 21/17 A2985 RMK AO2 T02120167
KONL 241255Z AUTO 13003KT 10SM CLR 21/17 A2987 RMK AO2 T02130165
KONL 241235Z AUTO 00000KT 10SM CLR 21/17 A2988 RMK AO2 LTG DSNT NW T02050166
KONL 241215Z AUTO 00000KT 10SM CLR 20/17 A2987 RMK AO2 T01950165
KONL 241155Z AUTO 00000KT 10SM CLR 19/16 A2985 RMK AO2 T01880162 10210 20182
KONL 241135Z AUTO 35006KT 10SM CLR 19/16 A2983 RMK AO2 T01850158
KONL 241115Z AUTO 35007KT 10SM CLR 19/16 A2981 RMK AO2 T01880156
KONL 241055Z AUTO 34008KT 10SM CLR 18/16 A2981 RMK AO2 T01820156
KONL 241035Z AUTO 33008KT 10SM CLR 18/16 A2979 RMK AO2 T01830157
KONL 241015Z AUTO 31008KT 10SM CLR 19/16 A2978 RMK AO2 T01860160
KONL 240955Z AUTO 32008KT 10SM CLR 19/17 A2975 RMK AO2 T01910166
KONL 240935Z AUTO 32008KT 10SM CLR 20/18 A2974 RMK AO2 T01980175
KONL 240915Z AUTO 27005KT 10SM CLR 19/18 A2977 RMK AO2 T01930176
KONL 240855Z AUTO 27004KT 10SM CLR 19/17 A2978 RMK AO2 T01900172
KONL 240835Z AUTO 28004KT 10SM CLR 20/17 A2978 RMK AO2 T01950172
KONL 240815Z AUTO 24004KT 10SM CLR 19/18 A2978 RMK AO2 T01940176
KONL 240755Z AUTO 20004KT 10SM CLR 20/18 A2979 RMK AO2 T01960182
KONL 240735Z AUTO 00000KT 10SM CLR 20/19 A2980 RMK AO2 T02000187
KONL 240715Z AUTO 22003KT 10SM SCT100 20/19 A2981 RMK AO2 LTG DSNT S AND SW T02000191
KONL 240655Z AUTO 20003KT 10SM SCT100 20/19 A2981 RMK AO2 LTG DSNT SW T01980190
KONL 240635Z AUTO 00000KT 10SM SCT100 20/19 A2981 RMK AO2 LTG DSNT SW T01960188
KONL 240615Z AUTO 00000KT 10SM SCT100 20/19 A2981 RMK AO2 T02030191
KONL 240555Z AUTO 20003KT 10SM SCT100 21/19 A2980 RMK AO2 T02100193 10287 20210 402950165
KONL 240535Z AUTO 15006KT 10SM CLR 21/20 A2979 RMK AO2 LTG DSNT SW T02130195
KONL 240515Z AUTO 14003KT 10SM CLR 22/20 A2979 RMK AO2 LTG DSNT SW T02150198
KONL 240455Z AUTO 13003KT 10SM CLR 22/20 A2978 RMK AO2 T02170199
KONL 240435Z AUTO 12004KT 10SM CLR 21/20 A2978 RMK AO2 T02140200
KONL 240415Z AUTO 07003KT 10SM SCT120 21/20 A2979 RMK AO2 T02120200
KONL 240355Z AUTO 07004KT 10SM SCT120 22/20 A2979 RMK AO2 T02160200
KONL 240335Z AUTO 10004KT 10SM CLR 23/20 A2979 RMK AO2 T02260202
KONL 240315Z AUTO 09005KT 10SM SCT110 22/20 A2978 RMK AO2 T02210199
KONL 240255Z AUTO 10004KT 10SM SCT110 23/20 A2977 RMK AO2 T02290195
KONL 240235Z AUTO 10005KT 10SM CLR 22/19 A2976 RMK AO2 T02230190
KONL 240215Z AUTO 08005KT 10SM CLR 23/18 A2975 RMK AO2 LTG DSNT SE AND S T02300178
KONL 240155Z AUTO 04004KT 10SM CLR 24/19 A2975 RMK AO2 T02400187
KONL 240135Z AUTO 06003KT 10SM CLR 25/18 A2974 RMK AO2 T02530180
KONL 240115Z AUTO 05004KT 10SM CLR 26/18 A2973 RMK AO2 T02610177
KONL 240055Z AUTO 04004KT 10SM CLR 28/18 A2973 RMK AO2 LTG DSNT NW T02750179
KONL 240035Z AUTO 02004KT 10SM SCT080 28/17 A2973 RMK AO2 T02810173
KONL 240015Z AUTO 03005KT 10SM BKN080 BKN100 28/17 A2972 RMK AO2 T02810169
KONL 232355Z AUTO 01006KT 10SM BKN080 BKN100 29/16 A2972 RMK AO2 T02860160 10295 20262
KONL 232335Z AUTO 34005KT 10SM SCT080 SCT090 29/15 A2972 RMK AO2 T02850146
KONL 232315Z AUTO 33006KT 10SM CLR 30/15 A2971 RMK AO2 T02950147
KONL 232255Z AUTO 28006KT 10SM CLR 30/15 A2971 RMK AO2 LTG DSNT E T02950152
KONL 232235Z AUTO 29005G08KT 10SM CLR 29/14 A2972 RMK AO2 T02940137
KONL 232215Z AUTO 27007KT 10SM CLR 30/15 A2971 RMK AO2 T02950148
KONL 232155Z AUTO 27006KT 10SM CLR 29/16 A2971 RMK AO2 T02890156